createdAt,value
2023-05-09T00:02:18.928Z,3.95
2023-05-09T00:04:48.142Z,3.72
2023-05-09T00:09:41.584Z,3.65
2023-05-09T00:12:08.265Z,3.13
2023-05-09T00:14:40.690Z,4.00
2023-05-09T00:17:09.709Z,4.82
2023-05-09T00:19:39.705Z,4.35
2023-05-09T00:22:12.922Z,3.88
2023-05-09T00:24:39.893Z,3.88
2023-05-09T00:27:06.422Z,3.40
2023-05-09T00:29:35.032Z,3.13
2023-05-09T00:32:03.993Z,3.17
2023-05-09T00:34:30.548Z,4.05
2023-05-09T00:36:57.194Z,3.60
2023-05-09T00:39:26.849Z,3.55
2023-05-09T00:41:56.054Z,4.18
2023-05-09T00:46:49.089Z,3.80
2023-05-09T00:49:15.830Z,6.15
2023-05-09T00:51:47.484Z,3.53
2023-05-09T00:54:14.268Z,4.97
2023-05-09T00:56:43.377Z,4.28
2023-05-09T00:59:10.095Z,3.70
2023-05-09T01:01:39.017Z,5.25
2023-05-09T01:04:07.871Z,4.10
2023-05-09T01:06:52.662Z,3.72
2023-05-09T01:09:32.714Z,4.47
2023-05-09T01:12:05.262Z,4.20
2023-05-09T01:15:04.444Z,4.13
2023-05-09T01:17:52.017Z,4.25
2023-05-09T01:20:36.434Z,4.38
2023-05-09T01:23:08.936Z,3.90
2023-05-09T01:25:38.502Z,4.45
2023-05-09T01:28:34.734Z,4.10
2023-05-09T01:31:03.638Z,4.88
2023-05-09T01:33:37.085Z,4.28
2023-05-09T01:36:09.666Z,5.30
2023-05-09T01:38:40.916Z,4.07
2023-05-09T01:41:11.999Z,5.75
2023-05-09T01:43:40.630Z,4.35
2023-05-09T01:46:09.117Z,4.95
2023-05-09T01:48:41.574Z,4.35
2023-05-09T01:51:10.037Z,4.68
2023-05-09T01:53:36.911Z,4.13
2023-05-09T01:56:07.887Z,4.82
2023-05-09T01:58:37.038Z,4.22
2023-05-09T02:01:08.533Z,5.50
2023-05-09T02:03:38.135Z,4.47
2023-05-09T02:06:07.743Z,3.85
2023-05-09T02:08:37.075Z,3.78
2023-05-09T02:13:33.899Z,4.38
2023-05-09T02:16:04.558Z,6.00
2023-05-09T02:18:32.685Z,4.50
2023-05-09T02:21:01.854Z,3.70
2023-05-09T02:23:31.327Z,6.13
2023-05-09T02:26:01.274Z,6.22
2023-05-09T02:28:32.448Z,5.47
2023-05-09T02:31:03.504Z,6.45
2023-05-09T02:33:33.405Z,6.18
2023-05-09T02:36:07.031Z,5.00
2023-05-09T02:38:36.519Z,6.32
2023-05-09T02:41:05.487Z,4.43
2023-05-09T02:43:32.137Z,5.97
2023-05-09T02:46:01.032Z,5.20
2023-05-09T02:48:30.415Z,5.13
2023-05-09T02:50:58.378Z,5.55
2023-05-09T02:53:25.007Z,5.72
2023-05-09T02:55:51.700Z,9.60
2023-05-09T02:58:20.991Z,5.60
2023-05-09T03:03:18.421Z,6.10
2023-05-09T03:05:47.516Z,6.13
2023-05-09T03:08:14.273Z,5.78
2023-05-09T03:10:40.920Z,6.07
2023-05-09T03:13:12.438Z,4.90
2023-05-09T03:15:39.223Z,6.10
2023-05-09T03:18:11.862Z,4.80
2023-05-09T03:20:42.426Z,6.15
2023-05-09T03:23:10.434Z,7.38
2023-05-09T03:25:42.267Z,4.80
2023-05-09T03:28:08.852Z,4.63
2023-05-09T03:30:35.496Z,5.93
2023-05-09T03:33:05.013Z,5.25
2023-05-09T03:35:32.281Z,5.90
2023-05-09T03:38:01.186Z,6.50
2023-05-09T03:40:30.180Z,5.32
2023-05-09T03:42:56.735Z,4.43
2023-05-09T03:45:25.874Z,5.35
2023-05-09T03:47:52.706Z,5.00
2023-05-09T03:50:21.525Z,5.88
2023-05-09T03:52:48.172Z,4.63
2023-05-09T03:55:17.219Z,4.55
2023-05-09T03:57:43.809Z,4.68
2023-05-09T04:00:13.540Z,6.32
2023-05-09T04:02:42.949Z,6.18
2023-05-09T04:05:09.664Z,4.68
2023-05-09T04:07:38.949Z,5.05
2023-05-09T04:10:08.772Z,5.88
2023-05-09T04:12:37.727Z,5.70
2023-05-09T04:15:04.713Z,4.55
2023-05-09T04:17:36.210Z,5.35
2023-05-09T04:20:03.298Z,5.05
2023-05-09T04:22:29.893Z,5.15
2023-05-09T04:24:57.268Z,4.95
2023-05-09T04:27:28.221Z,8.98
2023-05-09T04:29:55.142Z,4.60
2023-05-09T04:32:23.912Z,4.63
2023-05-09T04:34:50.574Z,5.47
2023-05-09T04:37:17.179Z,5.13
2023-05-09T04:39:44.046Z,4.13
2023-05-09T04:42:10.838Z,5.70
2023-05-09T04:44:42.734Z,5.90
2023-05-09T04:47:11.867Z,5.25
2023-05-09T04:49:40.858Z,6.30
2023-05-09T04:52:07.448Z,4.85
2023-05-09T04:54:36.973Z,4.35
2023-05-09T04:57:16.689Z,3.75
2023-05-09T04:59:44.896Z,6.55
2023-05-09T05:02:16.272Z,5.25
2023-05-09T05:04:43.045Z,4.75
2023-05-09T05:07:12.742Z,3.83
2023-05-09T05:09:41.842Z,5.32
2023-05-09T05:12:10.915Z,4.30
2023-05-09T05:14:37.524Z,5.00
2023-05-09T05:17:07.017Z,5.20
2023-05-09T05:19:38.864Z,4.80
2023-05-09T05:22:05.415Z,4.20
2023-05-09T05:24:34.543Z,7.50
2023-05-09T05:29:27.706Z,4.97
2023-05-09T05:31:54.388Z,5.30
2023-05-09T05:34:23.709Z,3.70
2023-05-09T05:36:52.358Z,3.88
2023-05-09T05:39:19.196Z,3.67
2023-05-09T05:41:45.826Z,5.85
2023-05-09T05:44:12.366Z,4.68
2023-05-09T05:46:39.092Z,4.30
2023-05-09T05:49:05.721Z,4.32
2023-05-09T05:51:34.810Z,3.83
2023-05-09T05:56:27.911Z,5.50
2023-05-09T05:58:57.437Z,5.35
2023-05-09T06:01:26.799Z,3.97
2023-05-09T06:03:55.962Z,5.22
2023-05-09T06:06:26.847Z,4.38
2023-05-09T06:08:56.235Z,4.10
2023-05-09T06:11:28.551Z,4.07
2023-05-09T06:13:55.186Z,5.80
2023-05-09T06:16:24.289Z,4.55
2023-05-09T06:21:21.574Z,5.60
2023-05-09T06:24:05.859Z,5.22
2023-05-09T06:26:37.276Z,3.63
2023-05-09T06:31:39.345Z,4.07
2023-05-09T06:34:08.388Z,4.55
2023-05-09T06:36:39.887Z,4.22
2023-05-09T06:39:06.479Z,5.00
2023-05-09T06:41:33.107Z,4.18
2023-05-09T06:43:59.796Z,4.03
2023-05-09T06:46:26.455Z,3.33
2023-05-09T06:48:53.102Z,8.15
2023-05-09T06:51:22.211Z,4.85
2023-05-09T06:56:23.137Z,2.97
2023-05-09T07:03:08.609Z,4.53
2023-05-09T08:16:59.557Z,2.95
2023-05-09T08:19:26.419Z,3.00
2023-05-09T08:21:56.164Z,2.03
2023-05-09T08:24:26.299Z,3.72
2023-05-09T08:26:52.960Z,2.97
2023-05-09T08:29:22.268Z,2.22
2023-05-09T08:31:51.226Z,1.58
2023-05-09T08:37:16.748Z,1.92
2023-05-09T08:39:49.141Z,2.25
2023-05-09T08:42:25.606Z,3.15
2023-05-09T08:44:53.079Z,2.47
2023-05-09T08:47:21.378Z,2.00
2023-05-09T08:49:56.422Z,2.20
2023-05-09T09:07:46.152Z,2.65
2023-05-09T09:10:13.977Z,2.53
2023-05-09T09:12:42.631Z,1.92
2023-05-09T09:15:19.045Z,1.13
2023-05-09T09:17:50.912Z,2.10
2023-05-09T09:20:24.851Z,4.75
2023-05-09T09:23:04.819Z,1.77
2023-05-09T09:25:31.420Z,2.75
2023-05-09T09:28:00.041Z,1.98
2023-05-09T09:30:26.709Z,1.27
2023-05-09T09:32:58.306Z,2.20
2023-05-09T09:35:30.194Z,1.88
2023-05-09T09:38:00.261Z,3.72
2023-05-09T09:40:27.478Z,2.65
2023-05-09T09:42:54.459Z,0.98
2023-05-09T09:45:23.687Z,2.50
2023-05-09T09:47:54.756Z,1.45
2023-05-09T09:50:25.509Z,2.55
2023-05-09T09:52:54.136Z,0.70
2023-05-09T09:55:26.981Z,1.88
2023-05-09T09:57:53.736Z,1.63
2023-05-09T10:00:26.533Z,5.28
2023-05-09T10:02:54.522Z,2.75
2023-05-09T10:05:29.596Z,1.77
2023-05-09T10:10:25.471Z,1.23
2023-05-09T10:12:56.688Z,1.38
2023-05-09T10:15:27.604Z,2.67
2023-05-09T10:17:58.238Z,2.10
2023-05-09T10:20:25.509Z,2.42
2023-05-09T10:22:59.013Z,1.45
2023-05-09T10:25:39.456Z,2.20
2023-05-09T10:28:15.556Z,3.08
2023-05-09T10:30:59.648Z,2.08
2023-05-09T10:33:37.997Z,1.48
2023-05-09T10:36:06.379Z,1.95
2023-05-09T10:38:33.481Z,1.50
2023-05-09T10:41:03.734Z,2.10
2023-05-09T10:43:32.169Z,2.63
2023-05-09T10:46:01.677Z,2.70
2023-05-09T10:48:28.850Z,1.80
2023-05-09T10:50:58.948Z,1.67
2023-05-09T10:53:40.531Z,2.42
2023-05-09T10:56:09.978Z,1.98
2023-05-09T10:58:40.895Z,2.45
2023-05-09T11:01:07.532Z,2.92
2023-05-09T11:03:54.473Z,1.80
2023-05-09T11:06:49.458Z,1.85
2023-05-09T11:09:35.885Z,1.70
2023-05-09T11:12:07.774Z,3.33
2023-05-09T11:14:47.392Z,1.70
2023-05-09T11:17:27.560Z,1.92
2023-05-09T11:20:03.512Z,2.30
2023-05-09T11:22:37.750Z,2.95
2023-05-09T11:25:14.701Z,1.73
2023-05-09T11:27:50.009Z,1.90
2023-05-09T11:30:19.076Z,2.65
2023-05-09T11:32:58.977Z,1.33
2023-05-09T11:35:28.684Z,2.70
2023-05-09T11:38:07.711Z,2.03
2023-05-09T11:40:35.586Z,1.25
2023-05-09T11:43:02.440Z,1.30
2023-05-09T11:45:33.686Z,1.70
2023-05-09T11:48:09.470Z,1.23
2023-05-09T11:50:38.586Z,2.38
2023-05-09T11:53:08.530Z,2.42
2023-05-09T11:55:38.074Z,2.10
2023-05-09T11:58:09.854Z,1.80
2023-05-09T12:00:43.673Z,2.88
2023-05-09T12:03:12.836Z,1.30
2023-05-09T12:05:42.790Z,4.57
2023-05-09T12:08:13.562Z,1.92
2023-05-09T12:10:42.420Z,1.85
2023-05-09T12:15:40.054Z,1.73
2023-05-09T12:18:10.614Z,3.17
2023-05-09T12:20:50.224Z,2.25
2023-05-09T12:23:21.631Z,2.20
2023-05-09T12:25:55.395Z,1.92
2023-05-09T12:28:24.099Z,2.67
2023-05-09T12:30:56.414Z,2.25
2023-05-09T12:33:25.866Z,2.05
2023-05-09T12:36:03.582Z,2.05
2023-05-09T12:38:32.985Z,1.90
2023-05-09T12:41:18.805Z,3.55
2023-05-09T12:43:57.074Z,1.38
2023-05-09T12:46:24.450Z,1.67
2023-05-09T12:48:53.383Z,2.00
2023-05-09T12:53:54.564Z,2.30
2023-05-09T12:56:28.213Z,2.00
2023-05-09T12:59:02.566Z,4.18
2023-05-09T13:01:32.011Z,1.92
2023-05-09T13:04:06.246Z,2.25
2023-05-09T13:06:36.421Z,1.50
2023-05-09T13:09:06.177Z,3.92
2023-05-09T13:11:37.894Z,3.83
2023-05-09T13:14:09.407Z,1.88
2023-05-09T13:16:36.121Z,3.08
2023-05-09T13:19:05.776Z,2.00
2023-05-09T13:21:35.185Z,2.25
2023-05-09T13:24:05.208Z,2.20
2023-05-09T13:26:34.328Z,2.88
2023-05-09T13:29:03.346Z,2.05
2023-05-09T13:31:33.146Z,2.08
2023-05-09T13:33:59.965Z,1.63
2023-05-09T13:36:26.799Z,3.90
2023-05-09T13:38:56.903Z,1.55
2023-05-09T13:41:24.092Z,4.00
2023-05-09T13:43:56.043Z,2.50
2023-05-09T13:46:22.662Z,1.63
2023-05-09T13:48:55.277Z,2.15
2023-05-09T13:51:22.654Z,2.00
2023-05-09T13:53:51.659Z,2.45
2023-05-09T13:56:20.807Z,1.60
2023-05-09T13:58:47.412Z,1.55
2023-05-09T14:01:16.320Z,1.88
2023-05-09T14:03:43.068Z,2.03
2023-05-09T14:06:10.486Z,1.95
2023-05-09T14:08:37.271Z,3.53
2023-05-09T14:11:07.533Z,2.25
2023-05-09T14:13:39.390Z,1.83
2023-05-09T14:16:09.577Z,1.92
2023-05-09T14:18:36.194Z,1.77
2023-05-09T14:21:05.545Z,2.55
2023-05-09T14:23:32.196Z,1.77
2023-05-09T14:26:02.442Z,2.20
2023-05-09T14:28:31.618Z,2.70
2023-05-09T14:31:00.712Z,1.48
2023-05-09T14:33:29.810Z,2.25
2023-05-09T14:35:56.675Z,3.47
2023-05-09T14:38:23.287Z,2.45
2023-05-09T14:40:52.520Z,1.90
2023-05-09T14:43:22.305Z,2.35
2023-05-09T14:45:48.903Z,1.77
2023-05-09T14:48:16.273Z,1.88
2023-05-09T14:50:43.157Z,1.77
2023-05-09T14:53:13.308Z,2.40
2023-05-09T14:58:34.309Z,1.52
2023-05-09T15:01:01.525Z,1.73
2023-05-09T15:03:32.351Z,3.53
2023-05-09T15:05:59.248Z,2.33
2023-05-09T15:09:13.500Z,1.70
2023-05-09T15:11:47.425Z,3.30
2023-05-09T15:14:16.687Z,2.00
2023-05-09T15:16:43.710Z,1.80
2023-05-09T15:19:12.985Z,3.15
2023-05-09T15:21:42.607Z,1.48
2023-05-09T15:24:14.422Z,2.20
2023-05-09T15:26:43.608Z,1.30
2023-05-09T15:29:10.447Z,1.60
2023-05-09T15:31:39.450Z,2.28
2023-05-09T15:34:06.134Z,1.27
2023-05-09T15:36:34.987Z,2.55
2023-05-09T15:41:33.338Z,1.55
2023-05-09T15:43:59.954Z,1.92
2023-05-09T15:46:33.246Z,2.28
2023-05-09T15:48:59.940Z,1.27
2023-05-09T15:51:29.784Z,2.47
2023-05-09T15:53:56.413Z,1.52
2023-05-09T15:56:22.999Z,2.35
2023-05-09T15:58:49.570Z,2.55
2023-05-09T16:01:16.240Z,2.17
2023-05-09T16:03:43.284Z,3.92
2023-05-09T16:06:12.966Z,1.90
2023-05-09T16:08:39.678Z,1.70
2023-05-09T16:11:06.416Z,2.35
2023-05-09T16:13:35.048Z,1.73
2023-05-09T16:16:02.625Z,1.98
2023-05-09T16:18:29.236Z,1.80
2023-05-09T16:20:56.062Z,4.85
2023-05-09T16:23:26.045Z,2.67
2023-05-09T16:25:52.668Z,1.58
2023-05-09T16:28:23.540Z,1.80
2023-05-09T16:30:51.523Z,2.00
2023-05-09T16:33:18.682Z,1.55
2023-05-09T16:35:45.305Z,1.65
2023-05-09T16:38:13.093Z,2.30
2023-05-09T16:40:40.053Z,2.78
2023-05-09T16:43:09.158Z,1.88
2023-05-09T16:45:35.828Z,1.58
2023-05-09T16:48:02.720Z,1.63
2023-05-09T16:50:31.692Z,2.03
2023-05-09T16:55:27.141Z,1.80
2023-05-09T16:57:53.726Z,3.30
2023-05-09T17:00:20.874Z,1.60
2023-05-09T17:02:47.545Z,1.80
2023-05-09T17:05:16.460Z,2.88
2023-05-09T17:10:14.953Z,2.13
2023-05-09T17:12:44.109Z,3.42
2023-05-09T17:15:11.961Z,2.95
2023-05-09T17:17:38.680Z,4.50
2023-05-09T17:20:11.305Z,5.10
2023-05-09T17:22:38.099Z,6.82
2023-05-09T17:25:07.685Z,4.70
2023-05-09T17:27:36.915Z,2.65
2023-05-09T17:30:04.169Z,1.90
2023-05-09T17:32:30.893Z,1.52
2023-05-09T17:35:00.560Z,1.70
2023-05-09T17:37:27.383Z,2.22
2023-05-09T17:39:56.509Z,4.20
2023-05-09T17:42:26.002Z,1.70
2023-05-09T17:44:53.266Z,2.25
2023-05-09T17:47:22.204Z,2.15
2023-05-09T17:49:52.415Z,1.60
2023-05-09T17:52:19.197Z,2.22
2023-05-09T17:54:45.963Z,2.45
2023-05-09T17:57:15.181Z,1.85
2023-05-09T17:59:45.695Z,2.10
2023-05-09T18:02:13.679Z,2.08
2023-05-09T18:04:40.560Z,2.35
2023-05-09T18:07:08.551Z,6.78
2023-05-09T18:09:37.436Z,4.97
2023-05-09T18:12:06.752Z,2.20
2023-05-09T18:14:35.882Z,2.92
2023-05-09T18:17:02.489Z,2.75
2023-05-09T18:19:29.308Z,2.90
2023-05-09T18:21:55.938Z,1.95
2023-05-09T18:24:23.246Z,4.28
2023-05-09T18:26:52.455Z,2.42
2023-05-09T18:29:24.386Z,3.15
2023-05-09T18:31:53.747Z,3.03
2023-05-09T18:34:20.612Z,6.03
2023-05-09T18:36:47.509Z,2.53
2023-05-09T18:39:16.760Z,2.85
2023-05-09T18:41:48.209Z,3.30
2023-05-09T18:44:14.807Z,2.10
2023-05-09T18:46:44.390Z,2.65
2023-05-09T18:49:11.417Z,3.72
2023-05-09T18:51:40.489Z,2.42
2023-05-09T18:56:39.437Z,2.50
2023-05-09T18:59:07.558Z,2.42
2023-05-09T19:01:34.185Z,4.05
2023-05-09T19:04:02.164Z,3.22
2023-05-09T19:06:29.141Z,3.20
2023-05-09T19:08:58.233Z,3.00
2023-05-09T19:11:28.264Z,2.88
2023-05-09T19:13:55.075Z,2.80
2023-05-09T19:16:23.768Z,2.70
2023-05-09T19:18:52.773Z,4.25
2023-05-09T19:23:49.185Z,2.38
2023-05-09T19:26:18.377Z,4.85
2023-05-09T19:28:48.105Z,2.90
2023-05-09T19:31:18.807Z,4.13
2023-05-09T19:33:50.217Z,4.25
2023-05-09T19:36:18.104Z,3.08
2023-05-09T19:38:47.113Z,3.33
2023-05-09T19:43:42.925Z,2.58
2023-05-09T19:46:09.962Z,3.20
2023-05-09T19:48:36.777Z,3.30
2023-05-09T19:51:08.786Z,3.25
2023-05-09T19:53:35.662Z,3.03
2023-05-09T19:56:02.520Z,3.75
2023-05-09T19:58:31.326Z,2.67
2023-05-09T20:01:00.396Z,3.70
2023-05-09T20:05:58.655Z,2.85
2023-05-09T20:08:28.051Z,2.58
2023-05-09T20:11:00.433Z,2.53
2023-05-09T20:13:27.768Z,3.88
2023-05-09T20:15:57.577Z,2.85
2023-05-09T20:18:26.932Z,3.03
2023-05-09T20:20:54.778Z,1.75
2023-05-09T20:23:27.573Z,3.05
2023-05-09T20:25:59.100Z,3.78
2023-05-09T20:28:25.777Z,5.07
2023-05-09T20:30:52.405Z,3.08
2023-05-09T20:33:19.204Z,4.30
2023-05-09T20:35:45.987Z,3.28
2023-05-09T20:38:15.056Z,7.20
2023-05-09T20:43:09.831Z,2.83
2023-05-09T20:45:38.830Z,2.95
2023-05-09T20:50:33.912Z,2.40
2023-05-09T20:53:02.787Z,2.70
2023-05-09T20:55:29.336Z,3.33
2023-05-09T20:57:56.440Z,2.63
2023-05-09T21:00:25.544Z,3.22
2023-05-09T21:05:24.882Z,2.50
2023-05-09T21:07:53.832Z,3.33
2023-05-09T21:10:22.928Z,2.53
2023-05-09T21:15:18.241Z,2.95
2023-05-09T21:17:47.248Z,2.38
2023-05-09T21:20:16.567Z,3.03
2023-05-09T21:22:43.477Z,3.25
2023-05-09T21:25:12.531Z,2.78
2023-05-09T21:30:08.604Z,3.40
2023-05-09T21:32:35.251Z,4.10
2023-05-09T21:35:04.660Z,2.35
2023-05-09T21:37:33.869Z,2.58
2023-05-09T21:40:00.670Z,3.85
2023-05-09T21:42:32.217Z,3.17
2023-05-09T21:44:58.775Z,3.42
2023-05-09T21:47:25.670Z,2.53
2023-05-09T21:49:53.453Z,3.05
2023-05-09T21:52:20.052Z,2.72
2023-05-09T21:54:49.558Z,2.15
2023-05-09T21:57:18.450Z,2.50
2023-05-09T21:59:47.532Z,4.50
2023-05-09T22:04:41.060Z,2.63
2023-05-09T22:07:08.204Z,3.08
2023-05-09T22:09:38.046Z,3.42
2023-05-09T22:12:04.718Z,3.55
2023-05-09T22:14:33.494Z,2.40
2023-05-09T22:17:01.755Z,4.82
2023-05-09T22:19:28.470Z,3.75
2023-05-09T22:21:55.062Z,3.15
2023-05-09T22:24:21.817Z,4.00
2023-05-09T22:26:48.374Z,3.05
2023-05-09T22:29:16.684Z,2.50
2023-05-09T22:31:44.546Z,2.17
2023-05-09T22:34:13.429Z,3.40
2023-05-09T22:36:40.062Z,2.22
2023-05-09T22:39:06.780Z,3.15
2023-05-09T22:41:33.351Z,2.33
2023-05-09T22:44:02.332Z,3.45
2023-05-09T22:46:31.320Z,3.85
2023-05-09T22:51:32.479Z,3.13
2023-05-09T22:54:01.568Z,3.13
2023-05-09T22:56:28.131Z,3.15
2023-05-09T22:58:54.746Z,2.05
2023-05-09T23:01:23.636Z,4.03
2023-05-09T23:03:50.735Z,5.15
2023-05-09T23:09:39.270Z,2.90
2023-05-09T23:12:10.332Z,2.58
2023-05-09T23:14:39.847Z,5.57
2023-05-09T23:17:08.880Z,4.03
2023-05-09T23:22:04.595Z,2.72
2023-05-09T23:24:33.623Z,2.60
2023-05-09T23:29:29.026Z,3.33
2023-05-09T23:31:55.709Z,2.47
2023-05-09T23:34:25.207Z,5.57
2023-05-09T23:36:56.519Z,6.82
2023-05-09T23:39:25.536Z,3.70
2023-05-09T23:44:21.530Z,3.80
2023-05-09T23:46:50.573Z,3.50
2023-05-09T23:49:19.584Z,3.38
2023-05-09T23:51:48.386Z,3.67
2023-05-09T23:54:17.371Z,3.55
2023-05-09T23:56:48.753Z,4.45
2023-05-09T23:59:15.453Z,3.17
